Time;durP1;ratioP1;P1;durP2;ratioP2;P2;SDS_P1;SDS_P2;PMS_P1;PMS_P2;Temp;Humidity;BMP_temperature;BMP_pressure;BME280_temperature;BME280_humidity;BME280_pressure;Samples;Min_cycle;Max_cycle;Signal;HPM_P1;HPM_P2
2024/03/22 00:00:01;;;;;;;15.47;10.10;;;;;;;8.18;100.00;98894.31;4974369;28;20207;-78
2024/03/22 00:02:26;;;;;;;16.20;9.87;;;;;;;8.19;100.00;98885.50;4974932;28;20212;-79
2024/03/22 00:04:54;;;;;;;16.10;10.47;;;;;;;8.19;100.00;98888.13;4975193;28;20581;-79
2024/03/22 00:07:20;;;;;;;16.47;10.83;;;;;;;8.16;100.00;98883.88;4975179;28;20213;-79
2024/03/22 00:09:46;;;;;;;17.73;10.77;;;;;;;8.18;100.00;98875.91;4975134;28;20214;-79
2024/03/22 00:12:12;;;;;;;17.37;10.70;;;;;;;8.15;100.00;98871.63;4974954;28;20585;-78
2024/03/22 00:14:38;;;;;;;20.40;11.30;;;;;;;8.19;100.00;98872.31;4974992;28;20217;-78
2024/03/22 00:17:04;;;;;;;15.00;10.40;;;;;;;8.14;100.00;98858.56;4974565;28;20221;-79
2024/03/22 00:19:30;;;;;;;14.60;10.33;;;;;;;8.09;100.00;98868.44;4975320;28;20218;-79
2024/03/22 00:21:57;;;;;;;17.57;11.10;;;;;;;8.10;100.00;98860.50;4974522;28;20243;-79
2024/03/22 00:24:24;;;;;;;20.10;11.60;;;;;;;8.07;100.00;98863.25;4974929;28;20222;-79
2024/03/22 00:26:49;;;;;;;21.53;11.80;;;;;;;8.08;100.00;98856.22;4976468;28;20219;-79
2024/03/22 00:29:16;;;;;;;21.43;12.13;;;;;;;8.05;100.00;98858.97;4977453;28;20222;-78
2024/03/22 00:31:41;;;;;;;19.20;11.40;;;;;;;8.02;100.00;98851.25;4977301;28;20222;-79
2024/03/22 00:34:08;;;;;;;17.53;11.60;;;;;;;7.93;100.00;98849.03;4977721;28;20220;-78
2024/03/22 00:36:33;;;;;;;17.67;11.73;;;;;;;7.93;100.00;98859.56;4977962;28;20224;-79
2024/03/22 00:39:01;;;;;;;17.57;11.20;;;;;;;7.92;100.00;98852.59;4977486;28;20210;-79
2024/03/22 00:41:27;;;;;;;16.20;11.40;;;;;;;7.99;100.00;98860.13;4977039;28;20249;-78
2024/03/22 00:43:53;;;;;;;21.30;13.13;;;;;;;7.96;100.00;98857.63;4978016;28;20218;-79
2024/03/22 00:46:19;;;;;;;18.30;11.57;;;;;;;7.91;100.00;98850.91;4977654;28;20228;-78
2024/03/22 00:48:45;;;;;;;18.17;11.53;;;;;;;7.90;100.00;98838.66;4977383;28;20582;-78
2024/03/22 00:51:11;;;;;;;17.77;11.37;;;;;;;7.82;100.00;98827.63;4976467;28;20232;-78
2024/03/22 00:53:37;;;;;;;20.63;11.93;;;;;;;7.76;100.00;98830.53;4976917;28;20210;-78
2024/03/22 00:56:05;;;;;;;19.83;12.07;;;;;;;7.71;100.00;98822.88;4976833;28;20224;-78
2024/03/22 00:58:31;;;;;;;17.80;11.30;;;;;;;7.71;100.00;98824.66;4976331;28;20265;-79
2024/03/22 01:00:57;;;;;;;18.37;11.50;;;;;;;7.68;100.00;98822.16;4976355;28;20611;-78
2024/03/22 01:03:23;;;;;;;17.17;11.00;;;;;;;7.67;100.00;98820.47;4977340;28;20218;-78
2024/03/22 01:05:49;;;;;;;20.23;12.50;;;;;;;7.66;100.00;98816.13;4977999;28;20227;-78
2024/03/22 01:08:15;;;;;;;19.93;12.27;;;;;;;7.65;100.00;98817.06;4978417;28;20247;-79
2024/03/22 01:10:41;;;;;;;21.77;12.17;;;;;;;7.55;100.00;98805.25;4977115;28;20237;-78
2024/03/22 01:13:09;;;;;;;18.40;11.60;;;;;;;7.52;100.00;98800.13;4977755;28;20216;-78
2024/03/22 01:15:35;;;;;;;18.37;11.53;;;;;;;7.46;100.00;98797.78;4977385;28;20209;-78
2024/03/22 01:18:02;;;;;;;17.90;12.20;;;;;;;7.43;100.00;98811.06;4978319;28;20223;-78
2024/03/22 01:20:27;;;;;;;18.87;11.50;;;;;;;7.32;100.00;98803.69;4978168;28;20333;-78
2024/03/22 01:22:54;;;;;;;17.50;11.33;;;;;;;7.19;100.00;98796.41;4977656;28;20289;-78
2024/03/22 01:25:19;;;;;;;16.57;10.90;;;;;;;7.09;100.00;98797.75;4977088;28;20702;-80
2024/03/22 01:27:46;;;;;;;17.57;11.13;;;;;;;6.98;100.00;98796.53;4977690;28;20215;-78
2024/03/22 01:30:13;;;;;;;17.10;11.33;;;;;;;6.90;100.00;98796.84;4976770;28;20217;-79
2024/03/22 01:32:39;;;;;;;16.00;10.37;;;;;;;6.84;100.00;98804.16;4977130;28;20618;-78
2024/03/22 01:35:06;;;;;;;17.70;10.90;;;;;;;6.76;100.00;98801.88;4976497;28;20213;-78
2024/03/22 01:37:32;;;;;;;16.97;10.27;;;;;;;6.78;100.00;98804.44;4975133;28;20295;-78
2024/03/22 01:39:58;;;;;;;16.20;10.97;;;;;;;6.72;100.00;98802.91;4976212;28;20214;-78
2024/03/22 01:42:24;;;;;;;15.73;10.20;;;;;;;6.68;100.00;98808.38;4975264;28;20245;-79
2024/03/22 01:44:50;;;;;;;15.70;10.00;;;;;;;6.61;100.00;98810.41;4975725;28;20221;-77
2024/03/22 01:47:18;;;;;;;16.37;9.93;;;;;;;6.59;100.00;98804.34;4976206;28;20216;-80
2024/03/22 01:49:44;;;;;;;17.67;9.60;;;;;;;6.53;100.00;98799.38;4975695;28;20715;-78
2024/03/22 01:52:10;;;;;;;14.57;8.97;;;;;;;6.51;100.00;98797.72;4974134;28;20229;-77
2024/03/22 01:54:36;;;;;;;14.43;9.77;;;;;;;6.45;100.00;98785.72;4975096;28;20218;-78
2024/03/22 01:57:03;;;;;;;15.90;9.83;;;;;;;6.47;100.00;98789.13;4976067;28;20227;-79
2024/03/22 01:59:30;;;;;;;16.73;9.73;;;;;;;6.46;100.00;98789.19;4975832;28;20605;-79
2024/03/22 02:01:56;;;;;;;16.50;10.67;;;;;;;6.45;100.00;98790.97;4976495;28;20243;-79
2024/03/22 02:04:23;;;;;;;16.03;10.27;;;;;;;6.39;100.00;98787.75;4976304;28;20646;-79
2024/03/22 02:06:50;;;;;;;18.33;10.10;;;;;;;6.39;100.00;98775.47;4975548;28;20270;-78
2024/03/22 02:09:15;;;;;;;14.57;9.73;;;;;;;6.37;100.00;98772.06;4975398;28;20215;-79
2024/03/22 02:11:43;;;;;;;14.33;10.57;;;;;;;6.29;100.00;98763.66;4974960;28;20228;-79
2024/03/22 02:14:08;;;;;;;14.27;10.17;;;;;;;6.22;100.00;98770.06;4975623;28;20209;-78
2024/03/22 02:16:35;;;;;;;18.03;9.47;;;;;;;6.16;100.00;98770.34;4975795;28;20225;-78
2024/03/22 02:19:00;;;;;;;15.80;8.23;;;;;;;6.08;100.00;98759.31;4975186;28;20567;-79
2024/03/22 02:21:28;;;;;;;15.37;9.83;;;;;;;5.97;100.00;98751.03;4974851;28;20238;-78
2024/03/22 02:23:55;;;;;;;16.03;8.83;;;;;;;5.99;100.00;98754.44;4975506;28;20214;-78
2024/03/22 02:26:22;;;;;;;14.13;9.50;;;;;;;5.98;100.00;98751.88;4975706;28;20404;-78
2024/03/22 02:28:47;;;;;;;16.73;10.07;;;;;;;5.97;100.00;98745.78;4974964;28;20218;-79
2024/03/22 02:31:13;;;;;;;14.67;9.73;;;;;;;6.01;100.00;98749.13;4974946;28;20233;-79
2024/03/22 02:33:39;;;;;;;19.50;10.70;;;;;;;5.99;100.00;98749.19;4975647;28;20220;-78
2024/03/22 02:36:06;;;;;;;17.83;10.37;;;;;;;5.96;100.00;98749.31;4975149;28;20219;-78
2024/03/22 02:38:32;;;;;;;18.33;11.37;;;;;;;5.94;100.00;98751.16;4975554;28;20223;-78
2024/03/22 02:41:00;;;;;;;16.70;10.63;;;;;;;5.89;100.00;98747.88;4974737;28;20721;-78
2024/03/22 02:43:25;;;;;;;16.83;11.47;;;;;;;5.87;100.00;98739.19;4975310;28;20207;-78
2024/03/22 02:45:52;;;;;;;20.37;12.67;;;;;;;5.83;100.00;98748.13;4974696;28;20214;-78
2024/03/22 02:48:17;;;;;;;17.70;11.87;;;;;;;5.82;100.00;98741.16;4973875;28;20214;-78
2024/03/22 02:50:44;;;;;;;19.73;12.10;;;;;;;5.81;100.00;98728.94;4973843;28;20238;-78
2024/03/22 02:53:09;;;;;;;21.03;12.57;;;;;;;5.81;100.00;98731.56;4974146;28;20212;-77
2024/03/22 02:55:39;;;;;;;24.67;14.43;;;;;;;5.80;100.00;98722.00;4974440;28;20217;-78
2024/03/22 02:58:07;;;;;;;22.93;13.67;;;;;;;5.84;100.00;98726.22;4974148;28;20211;-78
2024/03/22 03:00:36;;;;;;;24.13;14.33;;;;;;;5.95;100.00;98723.13;4973565;28;20322;-78
2024/03/22 03:03:02;;;;;;;25.07;14.97;;;;;;;6.01;100.00;98726.38;4973745;28;20617;-78
2024/03/22 03:05:29;;;;;;;25.57;14.53;;;;;;;6.02;100.00;98722.81;4974088;28;20219;-78
2024/03/22 03:07:55;;;;;;;22.70;14.40;;;;;;;6.12;100.00;98718.03;4973839;28;20215;-78
2024/03/22 03:10:21;;;;;;;24.60;14.87;;;;;;;6.19;100.00;98720.34;4973558;28;20237;-77
2024/03/22 03:12:47;;;;;;;23.73;13.97;;;;;;;6.27;100.00;98722.63;4973559;28;20219;-78
2024/03/22 03:15:15;;;;;;;21.17;14.27;;;;;;;6.31;100.00;98717.22;4973764;28;20207;-78
2024/03/22 03:17:40;;;;;;;23.20;15.17;;;;;;;6.37;100.00;98709.06;4974348;28;20212;-79
2024/03/22 03:20:13;;;;;;;24.53;15.10;;;;;;;6.41;100.00;98704.53;4973955;28;20694;-78
2024/03/22 03:22:39;;;;;;;25.37;15.20;;;;;;;6.45;100.00;98706.09;4973894;28;20232;-78
2024/03/22 03:25:06;;;;;;;23.63;15.40;;;;;;;6.54;100.00;98709.16;4973906;28;20215;-78
2024/03/22 03:27:32;;;;;;;24.70;14.33;;;;;;;6.58;100.00;98707.25;4973683;28;20220;-78
2024/03/22 03:29:58;;;;;;;22.07;15.07;;;;;;;6.55;100.00;98700.38;4974136;28;20266;-78
2024/03/22 03:32:25;;;;;;;24.33;14.50;;;;;;;6.46;100.00;98703.41;4973328;28;20232;-78
2024/03/22 03:34:52;;;;;;;23.87;14.33;;;;;;;6.46;100.00;98703.41;4973383;28;20218;-78
2024/03/22 03:37:17;;;;;;;21.93;14.47;;;;;;;6.42;100.00;98700.97;4973474;28;20220;-78
2024/03/22 03:39:43;;;;;;;28.50;14.90;;;;;;;6.37;100.00;98702.94;4973544;28;20691;-78
2024/03/22 03:42:09;;;;;;;23.27;13.90;;;;;;;6.35;100.00;98697.75;4973377;28;20235;-77
2024/03/22 03:44:36;;;;;;;22.87;14.67;;;;;;;6.37;100.00;98697.69;4973267;28;20206;-78
2024/03/22 03:47:02;;;;;;;22.67;14.80;;;;;;;6.33;100.00;98691.72;4973422;28;20303;-78
2024/03/22 03:49:30;;;;;;;26.30;14.37;;;;;;;6.29;100.00;98695.41;4973408;28;20216;-78
2024/03/22 03:51:55;;;;;;;24.87;14.90;;;;;;;6.29;100.00;98695.41;4973937;28;20229;-78
2024/03/22 03:54:22;;;;;;;23.30;14.43;;;;;;;6.26;100.00;98692.91;4975447;28;20212;-79
2024/03/22 03:56:47;;;;;;;20.47;14.07;;;;;;;6.25;100.00;98691.22;4975168;28;20237;-79
2024/03/22 03:59:14;;;;;;;19.63;13.40;;;;;;;6.23;100.00;98690.41;4975318;28;20214;-79
2024/03/22 04:01:39;;;;;;;24.53;14.30;;;;;;;6.23;100.00;98685.16;4977643;28;20236;-78
2024/03/22 04:04:06;;;;;;;24.07;14.30;;;;;;;6.24;100.00;98692.13;4979864;28;20643;-79
2024/03/22 04:06:34;;;;;;;25.10;14.57;;;;;;;6.27;100.00;98684.13;4979405;28;20209;-79
2024/03/22 04:09:00;;;;;;;25.83;15.43;;;;;;;6.31;100.00;98693.59;4979052;28;20636;-79
2024/03/22 04:11:26;;;;;;;22.93;14.70;;;;;;;6.37;100.00;98687.19;4978750;28;20228;-79
2024/03/22 04:13:52;;;;;;;26.93;15.07;;;;;;;6.42;100.00;98680.81;4978672;28;20715;-79
2024/03/22 04:16:18;;;;;;;28.13;15.97;;;;;;;6.46;100.00;98676.28;4978697;28;20320;-79
2024/03/22 04:18:45;;;;;;;26.23;15.10;;;;;;;6.50;100.00;98678.72;4979632;28;20219;-79
2024/03/22 04:21:10;;;;;;;28.10;14.57;;;;;;;6.52;100.00;98678.63;4977667;28;20242;-78
2024/03/22 04:23:38;;;;;;;23.33;14.87;;;;;;;6.53;100.00;98673.31;4977273;28;20563;-78
2024/03/22 04:26:04;;;;;;;25.27;15.40;;;;;;;6.57;100.00;98679.28;4977501;28;20229;-78
2024/03/22 04:28:31;;;;;;;23.20;15.20;;;;;;;6.61;100.00;98679.09;4977473;28;20208;-79
2024/03/22 04:31:00;;;;;;;25.30;15.17;;;;;;;6.66;100.00;98679.72;4977594;28;20239;-78
2024/03/22 04:33:27;;;;;;;23.00;15.07;;;;;;;6.71;100.00;98679.53;4977814;28;20278;-78
2024/03/22 04:35:53;;;;;;;21.53;13.97;;;;;;;6.74;100.00;98682.00;4979103;28;20216;-79
2024/03/22 04:38:19;;;;;;;18.03;12.37;;;;;;;6.67;100.00;98686.72;4978869;28;20214;-79
2024/03/22 04:40:47;;;;;;;17.77;12.30;;;;;;;6.59;100.00;98694.06;4978663;28;20245;-79
2024/03/22 04:43:14;;;;;;;18.63;13.43;;;;;;;6.57;100.00;98688.03;4979113;28;20215;-79
2024/03/22 04:45:42;;;;;;;19.60;12.37;;;;;;;6.57;100.00;98695.91;4978985;28;20564;-79
2024/03/22 04:48:08;;;;;;;19.20;12.83;;;;;;;6.59;100.00;98701.94;4978555;28;20224;-79
2024/03/22 04:50:35;;;;;;;18.57;12.60;;;;;;;6.60;100.00;98705.44;4978929;28;20237;-79
2024/03/22 04:53:00;;;;;;;19.33;12.80;;;;;;;6.61;100.00;98699.25;4979601;28;20275;-79
2024/03/22 04:55:27;;;;;;;17.53;11.17;;;;;;;6.60;100.00;98695.75;4980056;28;20217;-79
2024/03/22 04:57:54;;;;;;;17.50;11.53;;;;;;;6.61;100.00;98697.50;4979408;28;20236;-79
2024/03/22 05:00:20;;;;;;;17.47;9.87;;;;;;;6.53;100.00;98694.31;4979506;28;20285;-79
2024/03/22 05:02:46;;;;;;;17.80;10.27;;;;;;;6.48;100.00;98695.47;4979199;28;20238;-79
2024/03/22 05:05:12;;;;;;;15.27;10.43;;;;;;;6.45;100.00;98695.59;4979683;28;20211;-79
2024/03/22 05:07:38;;;;;;;16.70;10.27;;;;;;;6.45;100.00;98696.44;4979295;28;20216;-79
2024/03/22 05:10:05;;;;;;;14.47;10.13;;;;;;;6.48;100.00;98704.19;4979081;28;20289;-79
2024/03/22 05:12:31;;;;;;;16.10;10.50;;;;;;;6.45;100.00;98700.84;4978630;28;20208;-79
2024/03/22 05:14:58;;;;;;;14.87;9.73;;;;;;;6.39;100.00;98691.47;4979710;28;20238;-79
2024/03/22 05:17:24;;;;;;;15.57;9.70;;;;;;;6.38;100.00;98688.91;4979329;28;20215;-79
2024/03/22 05:19:51;;;;;;;13.93;9.73;;;;;;;6.40;100.00;98693.16;4979143;28;20267;-79
2024/03/22 05:22:20;;;;;;;17.27;10.17;;;;;;;6.43;100.00;98686.94;4978993;28;20258;-79
2024/03/22 05:24:46;;;;;;;14.77;9.17;;;;;;;6.42;100.00;98691.31;4978981;28;20266;-78
2024/03/22 05:27:12;;;;;;;15.20;10.10;;;;;;;6.45;100.00;98682.44;4978873;28;20552;-79
2024/03/22 05:29:39;;;;;;;12.57;8.93;;;;;;;6.46;100.00;98681.53;4978306;28;20687;-79
2024/03/22 05:32:08;;;;;;;16.83;10.03;;;;;;;6.50;100.00;98678.72;4978825;28;20232;-80
2024/03/22 05:34:33;;;;;;;16.70;10.00;;;;;;;6.53;100.00;98681.19;4979099;28;20215;-79
2024/03/22 05:37:01;;;;;;;18.83;9.87;;;;;;;6.58;100.00;98676.59;4979662;28;20302;-79
2024/03/22 05:39:26;;;;;;;16.63;10.23;;;;;;;6.60;100.00;98672.13;4979122;28;20698;-79
2024/03/22 05:41:53;;;;;;;13.90;9.67;;;;;;;6.67;100.00;98668.31;4984602;28;20302;-79
2024/03/22 05:44:20;;;;;;;13.37;9.03;;;;;;;6.71;100.00;98669.03;4987720;28;20207;-79
2024/03/22 05:46:46;;;;;;;17.20;9.93;;;;;;;6.74;100.00;98661.88;4989530;28;20593;-79
2024/03/22 05:49:13;;;;;;;14.63;10.47;;;;;;;6.76;100.00;98659.16;4988223;28;20276;-79
2024/03/22 05:51:40;;;;;;;15.60;10.37;;;;;;;6.79;100.00;98657.22;4987537;28;20258;-79
2024/03/22 05:54:07;;;;;;;15.70;10.37;;;;;;;6.80;100.00;98656.34;4987863;28;20212;-79
2024/03/22 05:56:33;;;;;;;15.43;10.30;;;;;;;6.82;100.00;98659.72;4988813;28;20287;-79
2024/03/22 05:58:59;;;;;;;13.47;9.17;;;;;;;6.85;100.00;98656.13;4987114;28;20211;-79
2024/03/22 06:01:26;;;;;;;16.13;9.37;;;;;;;6.85;100.00;98651.69;4981991;28;20322;-78
2024/03/22 06:03:51;;;;;;;13.37;9.13;;;;;;;6.83;100.00;98648.28;4976059;28;20300;-79
2024/03/22 06:06:22;;;;;;;12.17;8.87;;;;;;;6.78;100.00;98655.53;4975894;28;20212;-79
2024/03/22 06:08:52;;;;;;;13.87;8.80;;;;;;;6.74;100.00;98643.47;4975794;28;20212;-78
2024/03/22 06:11:18;;;;;;;16.07;9.27;;;;;;;6.65;100.00;98643.88;4975463;28;20226;-79
2024/03/22 06:13:44;;;;;;;12.90;8.87;;;;;;;6.63;100.00;98645.72;4975479;28;20212;-79
2024/03/22 06:16:10;;;;;;;13.13;8.57;;;;;;;6.63;100.00;98643.09;4976200;28;20213;-78
2024/03/22 06:18:36;;;;;;;13.13;8.73;;;;;;;6.65;100.00;98650.94;4975479;28;20676;-78
2024/03/22 06:21:03;;;;;;;13.20;8.17;;;;;;;6.67;100.00;98655.19;4974723;28;20231;-78
2024/03/22 06:23:30;;;;;;;15.17;9.40;;;;;;;6.73;100.00;98652.25;4975349;28;20239;-78
2024/03/22 06:25:57;;;;;;;15.47;10.03;;;;;;;6.87;100.00;98651.63;4977768;28;20298;-79
2024/03/22 06:28:24;;;;;;;13.97;8.47;;;;;;;6.96;100.00;98652.06;4976599;28;20207;-79
2024/03/22 06:30:49;;;;;;;13.77;9.70;;;;;;;7.06;100.00;98644.59;4976134;28;20243;-79
2024/03/22 06:33:16;;;;;;;16.37;10.20;;;;;;;7.22;100.00;98649.06;4975920;28;20695;-79
2024/03/22 06:35:41;;;;;;;15.70;10.50;;;;;;;7.42;100.00;98648.97;4975155;28;20218;-78
2024/03/22 06:38:08;;;;;;;14.27;9.77;;;;;;;7.65;100.00;98644.28;4975361;28;20219;-78
2024/03/22 06:40:35;;;;;;;15.23;10.10;;;;;;;7.80;100.00;98645.28;4974541;28;20253;-78
2024/03/22 06:43:02;;;;;;;14.93;9.77;;;;;;;7.94;100.00;98640.16;4975515;28;20214;-78
2024/03/22 06:45:27;;;;;;;14.73;10.03;;;;;;;8.05;100.00;98632.59;4975163;28;20217;-78
2024/03/22 06:47:54;;;;;;;13.57;9.40;;;;;;;8.18;100.00;98636.28;4975235;28;20580;-78
2024/03/22 06:50:24;;;;;;;19.03;11.70;;;;;;;8.35;100.00;98631.03;4974610;28;20209;-78
2024/03/22 06:52:51;;;;;;;21.07;12.83;;;;;;;8.56;100.00;98622.03;4974344;28;20276;-78
2024/03/22 06:55:16;;;;;;;20.57;12.23;;;;;;;8.72;100.00;98631.66;4974314;28;20688;-78
2024/03/22 06:57:44;;;;;;;20.17;11.77;;;;;;;8.81;100.00;98630.31;4974601;28;20248;-78
2024/03/22 07:00:13;;;;;;;15.87;11.57;;;;;;;8.91;100.00;98632.34;4975095;28;20541;-78
2024/03/22 07:02:39;;;;;;;17.73;11.80;;;;;;;8.99;100.00;98627.50;4973684;28;20298;-78
2024/03/22 07:05:06;;;;;;;18.80;12.07;;;;;;;9.13;100.00;98632.00;4974245;28;20315;-77
2024/03/22 07:07:32;;;;;;;20.13;12.00;;;;;;;9.19;100.00;98618.50;4973345;28;20206;-78
2024/03/22 07:09:58;;;;;;;17.77;11.70;;;;;;;9.22;100.00;98621.81;4974298;28;20219;-78
2024/03/22 07:12:24;;;;;;;16.10;11.20;;;;;;;9.29;100.00;98622.28;4973893;28;20230;-78
2024/03/22 07:14:51;;;;;;;17.20;11.10;;;;;;;9.41;100.00;98613.69;4974632;28;20282;-77
2024/03/22 07:17:23;;;;;;;17.97;11.77;;;;;;;9.49;100.00;98619.41;4973377;28;20214;-77
2024/03/22 07:19:49;;;;;;;16.17;11.30;;;;;;;9.58;100.00;98619.72;4973795;28;20214;-76
2024/03/22 07:22:15;;;;;;;18.80;12.03;;;;;;;9.62;100.00;98618.59;4972683;28;20597;-76
2024/03/22 07:24:41;;;;;;;17.23;11.60;;;;;;;9.69;100.00;98611.16;4975059;28;20220;-79
2024/03/22 07:27:07;;;;;;;18.13;10.63;;;;;;;9.79;100.00;98607.91;4974531;28;20212;-79
2024/03/22 07:29:33;;;;;;;19.63;12.00;;;;;;;9.87;100.00;98604.81;4975575;28;20212;-78
2024/03/22 07:32:01;;;;;;;16.80;11.40;;;;;;;9.97;100.00;98606.00;4974226;28;20283;-78
2024/03/22 07:34:26;;;;;;;17.23;11.00;;;;;;;10.08;100.00;98599.16;4974918;28;20217;-79
2024/03/22 07:36:53;;;;;;;17.90;11.30;;;;;;;10.24;100.00;98588.50;4975032;28;20210;-78
2024/03/22 07:39:18;;;;;;;18.63;11.03;;;;;;;10.30;100.00;98582.84;4975667;28;20213;-79
2024/03/22 07:41:45;;;;;;;15.70;10.63;;;;;;;10.40;100.00;98584.00;4975255;28;20731;-79
2024/03/22 07:44:11;;;;;;;14.53;10.13;;;;;;;10.45;100.00;98587.22;4974783;28;20217;-78
2024/03/22 07:46:37;;;;;;;16.37;10.93;;;;;;;10.57;100.00;98582.00;4973387;28;20222;-78
2024/03/22 07:49:04;;;;;;;15.87;10.40;;;;;;;10.68;100.00;98584.84;4973971;28;20205;-80
2024/03/22 07:51:30;;;;;;;15.63;10.40;;;;;;;10.70;100.00;98577.66;4975253;28;20256;-79
2024/03/22 07:53:56;;;;;;;14.93;9.80;;;;;;;10.77;100.00;98576.31;4973903;28;20213;-79
2024/03/22 07:56:23;;;;;;;13.30;9.23;;;;;;;10.83;100.00;98568.00;4973934;28;20215;-79
2024/03/22 07:58:48;;;;;;;12.63;9.87;;;;;;;10.97;100.00;98575.06;4974367;28;20539;-79
2024/03/22 08:01:16;;;;;;;14.20;10.07;;;;;;;11.09;100.00;98569.84;4974282;28;20239;-80
2024/03/22 08:03:42;;;;;;;15.13;10.40;;;;;;;11.27;100.00;98573.09;4974788;28;20233;-80
2024/03/22 08:06:10;;;;;;;16.27;10.23;;;;;;;11.43;100.00;98566.69;4975701;28;20258;-80
2024/03/22 08:08:35;;;;;;;14.97;10.10;;;;;;;11.57;100.00;98561.31;4977666;28;20219;-80
2024/03/22 08:11:02;;;;;;;13.00;9.47;;;;;;;11.67;100.00;98553.69;4979727;28;20262;-80
2024/03/22 08:13:27;;;;;;;12.33;9.07;;;;;;;11.92;100.00;98551.91;4981425;28;20202;-80
2024/03/22 08:15:54;;;;;;;11.47;8.93;;;;;;;12.16;100.00;98549.41;4981296;28;20217;-80
2024/03/22 08:18:20;;;;;;;15.13;9.27;;;;;;;12.42;100.00;98535.19;4982651;28;20215;-80
2024/03/22 08:20:46;;;;;;;12.53;9.43;;;;;;;12.62;100.00;98535.47;4982790;28;20246;-80
2024/03/22 08:23:13;;;;;;;15.37;9.43;;;;;;;12.87;100.00;98521.28;4983133;28;20241;-80
2024/03/22 08:25:40;;;;;;;11.80;9.30;;;;;;;13.11;98.33;98523.06;4983252;28;20732;-80
2024/03/22 08:28:05;;;;;;;14.60;8.77;;;;;;;13.37;97.32;98518.47;4983910;28;20281;-80
2024/03/22 08:30:32;;;;;;;12.47;9.00;;;;;;;13.66;95.95;98501.19;4983452;28;20235;-80
2024/03/22 08:32:57;;;;;;;15.00;9.70;;;;;;;13.93;95.27;98501.78;4983033;28;20298;-80
2024/03/22 08:35:24;;;;;;;12.87;8.33;;;;;;;14.22;94.11;98495.06;4983224;28;20248;-80
2024/03/22 08:37:49;;;;;;;12.43;9.17;;;;;;;14.53;91.00;98489.88;4982924;28;20223;-81
2024/03/22 08:40:17;;;;;;;10.93;8.53;;;;;;;14.83;86.70;98475.91;4982946;28;20303;-80
2024/03/22 08:42:43;;;;;;;11.03;8.87;;;;;;;15.09;86.19;98472.00;4983132;28;20227;-80
2024/03/22 08:45:10;;;;;;;11.20;8.23;;;;;;;15.20;84.46;98461.28;4982282;28;20232;-80
2024/03/22 08:47:35;;;;;;;12.07;8.33;;;;;;;15.14;82.57;98451.16;4983135;28;20676;-80
2024/03/22 08:50:02;;;;;;;11.03;7.97;;;;;;;15.11;81.63;98448.75;4986546;28;20271;-80
2024/03/22 08:52:27;;;;;;;14.63;8.77;;;;;;;15.14;81.20;98446.69;4986163;28;20223;-80
2024/03/22 08:54:54;;;;;;;11.43;8.60;;;;;;;15.04;81.99;98458.22;4987011;28;20277;-81
2024/03/22 08:57:22;;;;;;;12.47;8.53;;;;;;;14.95;81.75;98448.31;4988716;28;20205;-81
2024/03/22 08:59:48;;;;;;;11.93;8.33;;;;;;;14.93;81.26;98445.81;4986502;28;20224;-81
2024/03/22 09:02:14;;;;;;;10.13;8.20;;;;;;;14.86;83.57;98465.03;4985934;28;20237;-81
2024/03/22 09:04:41;;;;;;;12.23;8.97;;;;;;;14.95;84.88;98459.81;4986832;28;20240;-80
2024/03/22 09:07:07;;;;;;;10.30;8.90;;;;;;;15.05;82.90;98454.59;4986742;28;20232;-82
2024/03/22 09:09:33;;;;;;;11.43;8.33;;;;;;;15.02;83.14;98455.69;4986200;28;20678;-81
2024/03/22 09:11:59;;;;;;;11.30;8.70;;;;;;;15.18;83.79;98457.94;4981194;28;20238;-80
2024/03/22 09:14:27;;;;;;;12.20;8.63;;;;;;;15.18;82.40;98448.13;4979442;28;20276;-79
2024/03/22 09:16:53;;;;;;;10.43;8.37;;;;;;;15.19;82.25;98436.50;4979723;28;20586;-78
2024/03/22 09:19:20;;;;;;;11.70;8.27;;;;;;;15.28;81.00;98429.56;4979516;28;20813;-78
2024/03/22 09:21:45;;;;;;;12.27;8.43;;;;;;;15.35;80.59;98431.63;4976576;28;20244;-77
2024/03/22 09:24:12;;;;;;;14.07;8.37;;;;;;;15.36;82.12;98449.31;4977535;28;20237;-79
2024/03/22 09:26:37;;;;;;;12.10;8.20;;;;;;;15.42;83.03;98453.25;4980839;28;20222;-80
2024/03/22 09:29:04;;;;;;;13.83;8.97;;;;;;;15.54;79.29;98421.13;4982126;28;20539;-80
2024/03/22 09:31:32;;;;;;;12.73;8.37;;;;;;;15.73;80.30;98431.06;4981721;28;20238;-79
2024/03/22 09:33:59;;;;;;;10.23;8.13;;;;;;;15.92;80.84;98436.50;4981706;28;20222;-80
2024/03/22 09:36:24;;;;;;;10.67;8.03;;;;;;;15.92;80.84;98436.50;4983529;28;20334;-78
2024/03/22 09:38:51;;;;;;;10.93;7.80;;;;;;;16.20;76.12;98402.81;4984438;28;20234;-78
2024/03/22 09:41:21;;;;;;;11.30;7.97;;;;;;;16.32;76.89;98403.56;4983302;28;20811;-78
2024/03/22 09:43:50;;;;;;;8.93;7.13;;;;;;;16.47;73.96;98384.41;4984363;28;20226;-78
2024/03/22 09:46:18;;;;;;;8.57;7.00;;;;;;;16.57;71.56;98376.44;4982931;28;20211;-80
2024/03/22 09:48:48;;;;;;;11.00;7.53;;;;;;;16.23;65.53;98319.91;4980551;28;20266;-80
2024/03/22 09:51:16;;;;;;;9.23;6.83;;;;;;;16.21;66.73;98335.16;4980393;28;20621;-79
2024/03/22 09:53:45;;;;;;;9.83;6.80;;;;;;;16.48;66.98;98340.75;4981939;28;20254;-79
2024/03/22 09:56:13;;;;;;;11.07;6.77;;;;;;;16.71;70.23;98363.53;4981166;28;20221;-80
2024/03/22 09:58:40;;;;;;;9.30;7.20;;;;;;;16.90;67.59;98341.34;4977454;28;20218;-79
2024/03/22 10:01:06;;;;;;;7.70;6.13;;;;;;;17.03;67.70;98345.44;4977408;28;20725;-79
2024/03/22 10:03:36;;;;;;;11.07;6.83;;;;;;;17.16;65.10;98324.63;4977850;28;20238;-80
2024/03/22 10:06:04;;;;;;;10.00;7.27;;;;;;;17.18;64.55;98311.97;4978022;28;20234;-79
2024/03/22 10:08:32;;;;;;;7.20;5.63;;;;;;;17.24;60.12;98265.97;4978932;28;20215;-80
2024/03/22 10:10:57;;;;;;;7.37;5.90;;;;;;;17.23;59.40;98266.13;4978420;28;20226;-79
2024/03/22 10:13:24;;;;;;;5.67;4.17;;;;;;;17.14;59.76;98270.50;4978794;28;20210;-80
2024/03/22 10:15:49;;;;;;;6.73;4.83;;;;;;;17.13;58.53;98268.81;4978319;28;20700;-80
2024/03/22 10:18:16;;;;;;;6.73;4.40;;;;;;;17.09;59.83;98283.47;4978261;28;20206;-80
2024/03/22 10:20:42;;;;;;;6.43;4.90;;;;;;;17.09;61.29;98288.81;4978197;28;20720;-80
2024/03/22 10:23:10;;;;;;;6.53;4.83;;;;;;;17.19;61.15;98284.25;4978791;28;20234;-79
2024/03/22 10:25:36;;;;;;;7.37;5.50;;;;;;;17.17;60.33;98272.03;4978427;28;20649;-80
2024/03/22 10:28:04;;;;;;;7.50;5.40;;;;;;;17.21;59.35;98260.09;4979679;28;20207;-79
2024/03/22 10:30:30;;;;;;;7.27;5.30;;;;;;;17.24;60.50;98265.97;4978330;28;20680;-79
2024/03/22 10:32:57;;;;;;;6.37;5.63;;;;;;;17.33;59.09;98250.91;4979215;28;20242;-80
2024/03/22 10:35:24;;;;;;;8.60;6.17;;;;;;;17.32;57.91;98231.38;4979132;28;20219;-79
2024/03/22 10:37:51;;;;;;;4.87;4.10;;;;;;;17.33;58.11;98235.75;4979008;28;20234;-79
2024/03/22 10:40:20;;;;;;;4.50;4.10;;;;;;;17.46;58.69;98243.47;4978892;28;20221;-79
2024/03/22 10:42:46;;;;;;;6.43;4.67;;;;;;;17.54;58.12;98231.06;4979015;28;20234;-79
2024/03/22 10:45:12;;;;;;;5.27;4.30;;;;;;;17.59;58.39;98239.47;4978689;28;20214;-79
2024/03/22 10:47:39;;;;;;;5.17;4.37;;;;;;;17.66;57.43;98211.16;4977770;28;20207;-79
2024/03/22 10:50:06;;;;;;;8.57;5.40;;;;;;;17.79;55.83;98187.59;4979197;28;20214;-81
2024/03/22 10:52:37;;;;;;;7.63;4.83;;;;;;;17.76;56.87;98203.94;4978729;28;20218;-80
2024/03/22 10:55:04;;;;;;;8.27;5.87;;;;;;;17.93;55.13;98172.88;4982111;28;20213;-81
2024/03/22 10:57:36;;;;;;;5.83;5.03;;;;;;;18.01;54.72;98170.28;4980476;28;20294;-81
2024/03/22 11:00:03;;;;;;;6.43;5.03;;;;;;;18.13;54.89;98169.94;4980380;28;20690;-80
2024/03/22 11:02:30;;;;;;;6.30;5.03;;;;;;;18.05;54.70;98167.16;4982329;28;20225;-80
2024/03/22 11:04:58;;;;;;;6.93;4.50;;;;;;;18.16;55.81;98185.66;4978208;28;20206;-79
2024/03/22 11:07:30;;;;;;;7.87;5.60;;;;;;;18.18;54.34;98150.75;4978370;28;20215;-80
2024/03/22 11:10:03;;;;;;;7.17;5.30;;;;;;;18.20;53.79;98146.06;4978974;28;20298;-80
2024/03/22 11:12:33;;;;;;;7.13;5.20;;;;;;;18.21;53.49;98139.72;4978161;28;20508;-79
2024/03/22 11:15:03;;;;;;;6.57;5.30;;;;;;;18.01;55.15;98173.81;4978884;28;20211;-81
2024/03/22 11:17:30;;;;;;;5.93;4.40;;;;;;;18.01;54.73;98165.78;4979042;28;20274;-79